createdAt,value
2023-04-11T00:01:27.399Z,100539.70
2023-04-11T00:04:01.233Z,100536.97
2023-04-11T00:06:34.196Z,100537.59
2023-04-11T00:09:07.267Z,100539.64
2023-04-11T00:11:40.098Z,100537.81
2023-04-11T00:14:12.828Z,100540.41
2023-04-11T00:16:46.263Z,100541.36
2023-04-11T00:19:20.811Z,100545.41
2023-04-11T00:21:54.835Z,100534.02
2023-04-11T00:24:28.621Z,100538.20
2023-04-11T00:27:01.666Z,100532.66
2023-04-11T00:29:35.817Z,100536.60
2023-04-11T00:32:08.741Z,100535.25
2023-04-11T00:34:41.314Z,100536.23
2023-04-11T00:37:14.608Z,100544.69
2023-04-11T00:39:48.678Z,100527.70
2023-04-11T00:42:21.386Z,100532.23
2023-04-11T00:44:54.969Z,100521.69
2023-04-11T00:47:27.318Z,100520.81
2023-04-11T00:50:01.571Z,100531.37
2023-04-11T00:52:36.077Z,100528.02
2023-04-11T00:55:09.682Z,100519.77
2023-04-11T00:57:43.845Z,100523.06
2023-04-11T01:00:17.040Z,100526.38
2023-04-11T01:02:51.115Z,100524.63
2023-04-11T01:05:24.673Z,100526.60
2023-04-11T01:07:57.539Z,100531.50
2023-04-11T01:10:31.995Z,100534.70
2023-04-11T01:13:04.488Z,100535.30
2023-04-11T01:15:39.759Z,100533.80
2023-04-11T01:18:13.811Z,100532.20
2023-04-11T01:20:46.619Z,100531.03
2023-04-11T01:23:28.486Z,100537.39
2023-04-11T01:26:01.313Z,100529.03
2023-04-11T01:28:34.004Z,100524.83
2023-04-11T01:31:08.516Z,100523.48
2023-04-11T01:33:41.368Z,100523.33
2023-04-11T01:36:13.783Z,100520.23
2023-04-11T01:38:47.026Z,100518.16
2023-04-11T01:41:19.777Z,100520.09
2023-04-11T01:43:53.197Z,100517.28
2023-04-11T01:46:26.924Z,100524.28
2023-04-11T01:49:02.909Z,100520.62
2023-04-11T01:51:37.546Z,100521.14
2023-04-11T01:54:10.604Z,100520.05
2023-04-11T01:56:43.150Z,100522.27
2023-04-11T01:59:16.105Z,100506.54
2023-04-11T02:01:49.608Z,100501.25
2023-04-11T02:04:22.465Z,100498.80
2023-04-11T02:06:55.415Z,100502.89
2023-04-11T02:09:28.262Z,100498.44
2023-04-11T02:12:01.483Z,100496.44
2023-04-11T02:14:46.449Z,100496.77
2023-04-11T02:17:21.148Z,100497.27
2023-04-11T02:19:54.961Z,100496.36
2023-04-11T02:22:28.221Z,100494.09
2023-04-11T02:25:01.257Z,100494.31
2023-04-11T02:27:36.418Z,100488.55
2023-04-11T02:30:10.473Z,100495.66
2023-04-11T02:32:44.617Z,100498.47
2023-04-11T02:35:20.281Z,100496.97
2023-04-11T02:37:53.144Z,100493.97
2023-04-11T02:40:25.642Z,100489.62
2023-04-11T02:42:58.470Z,100494.08
2023-04-11T02:45:31.608Z,100496.22
2023-04-11T02:48:04.956Z,100487.25
2023-04-11T02:50:41.230Z,100484.29
2023-04-11T02:53:15.077Z,100482.31
2023-04-11T02:55:50.029Z,100482.02
2023-04-11T02:58:26.159Z,100484.45
2023-04-11T03:00:59.516Z,100481.97
2023-04-11T03:03:33.783Z,100484.41
2023-04-11T03:06:08.317Z,100477.87
2023-04-11T03:08:41.569Z,100480.68
2023-04-11T03:11:14.057Z,100484.47
2023-04-11T03:13:47.428Z,100476.95
2023-04-11T03:16:20.734Z,100477.16
2023-04-11T03:18:53.927Z,100478.72
2023-04-11T03:21:27.502Z,100474.57
2023-04-11T03:24:01.157Z,100476.43
2023-04-11T03:26:35.185Z,100480.47
2023-04-11T03:29:08.528Z,100482.66
2023-04-11T03:31:43.677Z,100479.23
2023-04-11T03:34:18.149Z,100476.13
2023-04-11T03:36:50.537Z,100474.67
2023-04-11T03:39:24.374Z,100473.63
2023-04-11T03:41:57.974Z,100481.61
2023-04-11T03:44:31.499Z,100475.39
2023-04-11T03:47:04.081Z,100483.06
2023-04-11T03:49:39.800Z,100480.98
2023-04-11T03:52:14.586Z,100484.72
2023-04-11T03:54:47.994Z,100488.70
2023-04-11T03:57:20.934Z,100488.67
2023-04-11T03:59:55.244Z,100488.61
2023-04-11T04:02:28.210Z,100483.14
2023-04-11T04:05:01.790Z,100488.26
2023-04-11T04:07:36.791Z,100490.19
2023-04-11T04:10:12.015Z,100483.14
2023-04-11T04:12:45.836Z,100483.44
2023-04-11T04:15:21.571Z,100474.83
2023-04-11T04:17:55.545Z,100472.33
2023-04-11T04:20:29.704Z,100474.60
2023-04-11T04:23:05.651Z,100468.88
2023-04-11T04:25:41.955Z,100472.36
2023-04-11T04:28:16.743Z,100467.11
2023-04-11T04:30:53.825Z,100467.00
2023-04-11T04:33:28.704Z,100465.95
2023-04-11T04:36:04.582Z,100462.14
2023-04-11T04:38:38.718Z,100458.73
2023-04-11T04:41:14.626Z,100457.03
2023-04-11T04:43:49.060Z,100452.98
2023-04-11T04:46:24.055Z,100452.39
2023-04-11T04:48:56.560Z,100454.86
2023-04-11T04:51:30.362Z,100444.53
2023-04-11T04:54:04.953Z,100450.20
2023-04-11T04:56:37.756Z,100443.16
2023-04-11T04:59:13.402Z,100442.69
2023-04-11T05:01:45.911Z,100432.08
2023-04-11T05:04:19.614Z,100431.17
2023-04-11T05:06:54.368Z,100436.94
2023-04-11T05:09:29.408Z,100432.30
2023-04-11T05:12:05.163Z,100429.27
2023-04-11T05:14:39.863Z,100431.30
2023-04-11T05:17:12.916Z,100427.28
2023-04-11T05:19:46.358Z,100417.43
2023-04-11T05:22:18.957Z,100430.03
2023-04-11T05:24:53.818Z,100429.76
2023-04-11T05:27:27.461Z,100418.39
2023-04-11T05:30:01.380Z,100415.36
2023-04-11T05:32:35.889Z,100419.78
2023-04-11T05:35:10.913Z,100415.33
2023-04-11T05:37:49.275Z,100405.95
2023-04-11T05:40:22.812Z,100417.16
2023-04-11T05:42:55.472Z,100410.50
2023-04-11T05:45:28.669Z,100408.48
2023-04-11T05:48:04.301Z,100404.17
2023-04-11T05:50:37.603Z,100412.12
2023-04-11T05:53:10.777Z,100410.75
2023-04-11T05:55:43.320Z,100405.50
2023-04-11T05:58:16.585Z,100405.06
2023-04-11T06:00:50.108Z,100402.48
2023-04-11T06:03:23.335Z,100397.75
2023-04-11T06:05:57.155Z,100397.63
2023-04-11T06:08:31.974Z,100405.74
2023-04-11T06:11:04.836Z,100401.42
2023-04-11T06:13:37.912Z,100403.95
2023-04-11T06:16:11.466Z,100403.91
2023-04-11T06:18:44.050Z,100404.91
2023-04-11T06:21:16.628Z,100396.13
2023-04-11T06:23:49.600Z,100390.55
2023-04-11T06:26:22.393Z,100387.55
2023-04-11T06:28:55.370Z,100391.19
2023-04-11T06:31:27.908Z,100385.72
2023-04-11T06:34:04.571Z,100382.78
2023-04-11T06:36:37.726Z,100388.09
2023-04-11T06:39:10.429Z,100381.53
2023-04-11T06:41:43.997Z,100380.48
2023-04-11T06:44:17.866Z,100374.27
2023-04-11T06:46:50.930Z,100368.72
2023-04-11T06:49:24.090Z,100373.16
2023-04-11T06:51:56.745Z,100375.61
2023-04-11T06:54:30.881Z,100370.13
2023-04-11T06:57:04.087Z,100374.27
2023-04-11T06:59:37.216Z,100368.25
2023-04-11T07:02:09.987Z,100365.71
2023-04-11T07:04:42.827Z,100360.00
2023-04-11T07:07:15.662Z,100358.06
2023-04-11T07:09:48.868Z,100351.38
2023-04-11T07:12:21.546Z,100356.85
2023-04-11T07:14:54.696Z,100349.01
2023-04-11T07:17:28.329Z,100348.69
2023-04-11T07:20:01.353Z,100348.35
2023-04-11T07:22:34.434Z,100334.24
2023-04-11T07:25:20.071Z,100342.59
2023-04-11T07:27:53.566Z,100333.42
2023-04-11T07:30:26.552Z,100336.27
2023-04-11T07:32:59.974Z,100331.50
2023-04-11T07:35:36.866Z,100327.84
2023-04-11T07:38:10.653Z,100322.20
2023-04-11T07:40:43.182Z,100322.89
2023-04-11T07:43:16.077Z,100323.02
2023-04-11T07:45:48.465Z,100310.86
2023-04-11T07:48:22.824Z,100309.05
2023-04-11T07:50:55.463Z,100312.63
2023-04-11T07:53:28.557Z,100308.55
2023-04-11T07:56:01.188Z,100311.36
2023-04-11T07:58:34.037Z,100306.27
2023-04-11T08:01:09.930Z,100298.87
2023-04-11T08:03:44.422Z,100303.02
2023-04-11T08:06:17.141Z,100302.11
2023-04-11T08:08:50.328Z,100293.78
2023-04-11T08:11:22.879Z,100286.70
2023-04-11T08:13:57.298Z,100283.67
2023-04-11T08:16:31.197Z,100285.24
2023-04-11T08:19:04.240Z,100280.70
2023-04-11T08:21:37.394Z,100277.49
2023-04-11T08:24:11.631Z,100279.19
2023-04-11T08:26:44.093Z,100274.73
2023-04-11T08:29:19.178Z,100270.41
2023-04-11T08:31:53.433Z,100263.40
2023-04-11T08:34:25.867Z,100265.88
2023-04-11T08:36:58.726Z,100260.89
2023-04-11T08:39:31.764Z,100258.17
2023-04-11T08:42:04.474Z,100259.15
2023-04-11T08:44:37.414Z,100265.98
2023-04-11T08:47:10.686Z,100251.34
2023-04-11T08:49:43.984Z,100250.66
2023-04-11T08:52:18.230Z,100246.02
2023-04-11T08:54:55.246Z,100223.67
2023-04-11T08:57:31.693Z,100228.30
2023-04-11T09:00:10.536Z,100225.36
2023-04-11T09:03:07.738Z,100226.34
2023-04-11T09:05:42.679Z,100223.07
2023-04-11T09:08:17.807Z,100219.31
2023-04-11T09:10:50.499Z,100220.70
2023-04-11T09:13:28.236Z,100211.38
2023-04-11T09:16:16.596Z,100209.38
2023-04-11T09:18:49.258Z,100203.05
2023-04-11T09:21:22.356Z,100208.02
2023-04-11T09:23:55.559Z,100193.94
2023-04-11T09:26:30.841Z,100197.28
2023-04-11T09:29:04.184Z,100193.94
2023-04-11T09:31:45.295Z,100193.59
2023-04-11T09:34:21.638Z,100186.98
2023-04-11T09:36:57.702Z,100181.41
2023-04-11T09:39:31.201Z,100176.97
2023-04-11T09:42:05.082Z,100171.38
2023-04-11T09:44:39.630Z,100175.84
2023-04-11T09:47:12.414Z,100163.20
2023-04-11T09:49:46.364Z,100164.36
2023-04-11T09:52:19.294Z,100152.14
2023-04-11T09:54:51.756Z,100150.71
2023-04-11T09:57:24.486Z,100145.53
2023-04-11T09:59:56.845Z,100146.00
2023-04-11T10:02:30.550Z,100143.72
2023-04-11T10:05:04.448Z,100135.59
2023-04-11T10:08:06.605Z,100137.91
2023-04-11T10:10:39.080Z,100138.48
2023-04-11T10:13:49.424Z,100127.13
2023-04-11T10:16:23.710Z,100123.57
2023-04-11T10:19:02.003Z,100121.83
2023-04-11T10:21:41.164Z,100113.36
2023-04-11T10:24:18.177Z,100118.52
2023-04-11T10:26:58.810Z,100108.95
2023-04-11T10:29:37.730Z,100105.19
2023-04-11T10:32:20.447Z,100105.83
2023-04-11T10:34:58.999Z,100099.08
2023-04-11T10:37:37.645Z,100090.95
2023-04-11T10:43:09.547Z,100080.97
2023-04-11T10:45:42.889Z,100085.36
2023-04-11T10:48:17.098Z,100072.89
2023-04-11T10:50:49.817Z,100075.61
2023-04-11T10:53:37.238Z,100077.41
2023-04-11T10:56:10.486Z,100065.80
2023-04-11T10:58:43.936Z,100077.52
2023-04-11T11:01:31.743Z,100061.14
2023-04-11T11:03:57.145Z,100065.45
2023-04-11T11:06:31.178Z,100060.84
2023-04-11T11:09:07.102Z,100054.47
2023-04-11T11:11:40.414Z,100045.20
2023-04-11T11:14:13.708Z,100055.75
2023-04-11T11:16:47.402Z,100053.13
2023-04-11T11:19:19.813Z,100055.65
2023-04-11T11:21:55.747Z,100049.82
2023-04-11T11:24:28.741Z,100043.91
2023-04-11T11:27:03.429Z,100043.59
2023-04-11T11:29:40.775Z,100050.00
2023-04-11T11:32:25.370Z,100042.04
2023-04-11T11:34:59.037Z,100035.05
2023-04-11T11:37:31.592Z,100036.65
2023-04-11T11:40:06.384Z,100037.74
2023-04-11T11:42:41.189Z,100036.63
2023-04-11T11:45:23.742Z,100031.73
2023-04-11T11:47:56.535Z,100030.09
2023-04-11T11:50:33.167Z,100016.92
2023-04-11T11:53:16.175Z,100023.42
2023-04-11T11:55:48.913Z,100020.34
2023-04-11T11:58:23.092Z,100026.10
2023-04-11T12:00:55.936Z,100010.15
2023-04-11T12:03:30.170Z,100009.91
2023-04-11T12:06:03.560Z,100006.48
2023-04-11T12:08:38.202Z,100003.06
2023-04-11T12:11:13.133Z,100007.86
2023-04-11T12:16:18.724Z,100001.33
2023-04-11T12:18:51.959Z,99993.18
2023-04-11T12:21:24.548Z,100000.22
2023-04-11T12:23:57.601Z,99986.36
2023-04-11T12:26:31.092Z,99980.25
2023-04-11T12:29:05.677Z,99976.39
2023-04-11T12:31:39.002Z,99975.66
2023-04-11T12:34:11.714Z,99968.26
2023-04-11T12:36:45.064Z,99972.11
2023-04-11T12:39:18.106Z,99964.56
2023-04-11T12:41:50.914Z,99963.80
2023-04-11T12:44:24.654Z,99959.30
2023-04-11T12:46:58.164Z,99964.47
2023-04-11T12:49:31.008Z,99951.48
2023-04-11T12:52:04.408Z,99953.91
2023-04-11T12:54:37.723Z,99950.94
2023-04-11T12:57:12.715Z,99946.88
2023-04-11T12:59:45.372Z,99940.63
2023-04-11T13:02:19.068Z,99931.22
2023-04-11T13:04:55.932Z,99930.54
2023-04-11T13:07:30.094Z,99925.78
2023-04-11T13:10:09.636Z,99925.41
2023-04-11T13:12:45.004Z,99918.88
2023-04-11T13:15:18.423Z,99919.55
2023-04-11T13:17:52.011Z,99927.41
2023-04-11T13:20:24.667Z,99915.58
2023-04-11T13:22:57.612Z,99912.70
2023-04-11T13:25:31.188Z,99906.48
2023-04-11T13:28:04.196Z,99907.13
2023-04-11T13:30:36.995Z,99909.36
2023-04-11T13:33:11.030Z,99904.70
2023-04-11T13:35:45.268Z,99900.95
2023-04-11T13:38:20.174Z,99897.89
2023-04-11T13:40:53.383Z,99892.31
2023-04-11T13:43:26.419Z,99893.87
2023-04-11T13:45:59.789Z,99880.81
2023-04-11T13:48:34.416Z,99889.02
2023-04-11T13:51:07.723Z,99881.44
2023-04-11T13:53:40.559Z,99877.95
2023-04-11T13:56:13.395Z,99882.20
2023-04-11T13:58:45.738Z,99877.09
2023-04-11T14:01:20.335Z,99872.52
2023-04-11T14:03:53.776Z,99867.97
2023-04-11T14:06:26.516Z,99869.58
2023-04-11T14:09:00.037Z,99870.96
2023-04-11T14:11:34.534Z,99868.09
2023-04-11T14:14:08.722Z,99866.94
2023-04-11T14:16:41.754Z,99869.36
2023-04-11T14:19:14.965Z,99870.41
2023-04-11T14:21:49.136Z,99869.78
2023-04-11T14:24:22.481Z,99861.64
2023-04-11T14:26:57.091Z,99847.27
2023-04-11T14:29:31.202Z,99852.38
2023-04-11T14:32:03.886Z,99854.75
2023-04-11T14:34:37.122Z,99850.50
2023-04-11T14:37:09.712Z,99843.88
2023-04-11T14:39:43.203Z,99847.99
2023-04-11T14:42:15.876Z,99843.24
2023-04-11T14:44:49.950Z,99841.59
2023-04-11T14:47:23.414Z,99845.38
2023-04-11T14:49:57.767Z,99851.94
2023-04-11T14:52:31.083Z,99853.67
2023-04-11T14:55:03.886Z,99850.28
2023-04-11T14:57:55.234Z,99844.84
2023-04-11T15:00:28.739Z,99848.98
2023-04-11T15:03:02.060Z,99856.22
2023-04-11T15:05:34.637Z,99853.52
2023-04-11T15:08:08.394Z,99846.53
2023-04-11T15:10:41.608Z,99847.06
2023-04-11T15:13:15.133Z,99841.95
2023-04-11T15:15:48.692Z,99848.45
2023-04-11T15:18:29.340Z,99843.70
2023-04-11T15:21:03.687Z,99840.66
2023-04-11T15:23:36.568Z,99844.80
2023-04-11T15:26:09.035Z,99837.30
2023-04-11T15:28:43.672Z,99834.22
2023-04-11T15:31:17.779Z,99834.75
2023-04-11T15:33:50.454Z,99829.84
2023-04-11T15:36:23.609Z,99827.28
2023-04-11T15:38:57.755Z,99832.44
2023-04-11T15:44:13.696Z,99824.27
2023-04-11T15:46:48.610Z,99823.42
2023-04-11T15:49:20.638Z,99823.78
2023-04-11T15:51:53.527Z,99821.06
2023-04-11T15:54:26.618Z,99821.41
2023-04-11T15:56:59.403Z,99819.73
2023-04-11T15:59:32.131Z,99812.39
2023-04-11T16:02:06.290Z,99817.37
2023-04-11T16:04:39.776Z,99817.71
2023-04-11T16:07:12.770Z,99813.92
2023-04-11T16:09:45.218Z,99807.44
2023-04-11T16:12:19.213Z,99808.82
2023-04-11T16:14:52.557Z,99810.17
2023-04-11T16:17:25.581Z,99805.76
2023-04-11T16:19:58.553Z,99805.23
2023-04-11T16:22:31.446Z,99803.73
2023-04-11T16:25:10.807Z,99804.24
2023-04-11T16:27:45.184Z,99810.91
2023-04-11T16:30:18.947Z,99803.06
2023-04-11T16:32:52.885Z,99798.94
2023-04-11T16:35:25.892Z,99801.19
2023-04-11T16:37:58.581Z,99796.92
2023-04-11T16:40:32.044Z,99797.27
2023-04-11T16:43:04.545Z,99795.37
2023-04-11T16:45:38.019Z,99786.33
2023-04-11T16:48:11.085Z,99786.67
2023-04-11T16:50:43.816Z,99788.74
2023-04-11T16:53:18.073Z,99795.54
2023-04-11T16:55:51.838Z,99787.19
2023-04-11T16:58:24.584Z,99785.33
2023-04-11T17:00:58.696Z,99792.82
2023-04-11T17:03:33.521Z,99794.36
2023-04-11T17:06:15.144Z,99788.37
2023-04-11T17:08:48.284Z,99788.91
2023-04-11T17:11:21.081Z,99788.55
2023-04-11T17:13:56.278Z,99785.66
2023-04-11T17:16:29.384Z,99791.78
2023-04-11T17:19:02.162Z,99789.22
2023-04-11T17:21:35.796Z,99786.16
2023-04-11T17:24:09.460Z,99777.11
2023-04-11T17:26:42.561Z,99774.72
2023-04-11T17:29:15.727Z,99783.60
2023-04-11T17:34:35.476Z,99771.32
2023-04-11T17:37:08.553Z,99773.19
2023-04-11T17:39:42.266Z,99775.41
2023-04-11T17:42:16.982Z,99780.53
2023-04-11T17:44:50.627Z,99780.00
2023-04-11T17:47:24.310Z,99780.87
2023-04-11T17:49:58.216Z,99784.27
2023-04-11T17:52:31.262Z,99794.52
2023-04-11T17:55:06.474Z,99792.78
2023-04-11T17:57:40.632Z,99787.66
2023-04-11T18:00:18.507Z,99794.15
2023-04-11T18:02:56.128Z,99796.67
2023-04-11T18:05:32.278Z,99804.33
2023-04-11T18:08:06.395Z,99797.84
2023-04-11T18:10:39.948Z,99803.63
2023-04-11T18:13:12.568Z,99800.89
2023-04-11T18:15:45.838Z,99804.98
2023-04-11T18:18:19.089Z,99798.16
2023-04-11T18:20:52.087Z,99788.29
2023-04-11T18:23:24.593Z,99792.38
2023-04-11T18:25:57.476Z,99788.99
2023-04-11T18:28:31.120Z,99778.41
2023-04-11T18:31:06.420Z,99780.84
2023-04-11T18:33:43.789Z,99766.20
2023-04-11T18:36:14.151Z,99771.66
2023-04-11T18:38:47.716Z,99772.66
2023-04-11T18:41:20.922Z,99767.73
2023-04-11T18:43:53.689Z,99762.78
2023-04-11T18:46:26.358Z,99755.76
2023-04-11T18:48:59.788Z,99753.03
2023-04-11T18:51:35.677Z,99749.78
2023-04-11T18:54:09.282Z,99753.53
2023-04-11T18:56:45.092Z,99751.30
2023-04-11T18:59:18.766Z,99752.67
2023-04-11T19:01:54.634Z,99745.69
2023-04-11T19:04:29.220Z,99741.77
2023-04-11T19:07:01.990Z,99738.17
2023-04-11T19:09:36.299Z,99735.44
2023-04-11T19:12:11.736Z,99728.30
2023-04-11T19:14:45.276Z,99719.78
2023-04-11T19:17:18.724Z,99708.88
2023-04-11T19:19:51.557Z,99706.31
2023-04-11T19:22:24.109Z,99702.22
2023-04-11T19:24:56.639Z,99697.97
2023-04-11T19:27:29.056Z,99698.97
2023-04-11T19:30:04.010Z,99686.20
2023-04-11T19:32:39.895Z,99683.27
2023-04-11T19:35:13.018Z,99683.64
2023-04-11T19:37:46.392Z,99672.54
2023-04-11T19:40:21.141Z,99670.15
2023-04-11T19:42:53.852Z,99668.63
2023-04-11T19:45:26.863Z,99663.00
2023-04-11T19:48:00.558Z,99660.95
2023-04-11T19:50:33.397Z,99660.11
2023-04-11T19:53:06.303Z,99654.83
2023-04-11T19:55:38.696Z,99651.41
2023-04-11T19:58:11.762Z,99658.22
2023-04-11T20:00:44.886Z,99657.72
2023-04-11T20:03:18.375Z,99654.62
2023-04-11T20:05:51.678Z,99647.48
2023-04-11T20:08:25.963Z,99657.52
2023-04-11T20:10:58.292Z,99651.91
2023-04-11T20:13:31.299Z,99648.84
2023-04-11T20:16:06.112Z,99643.40
2023-04-11T20:18:39.240Z,99642.00
2023-04-11T20:21:13.348Z,99643.03
2023-04-11T20:23:45.737Z,99628.88
2023-04-11T20:26:18.468Z,99616.45
2023-04-11T20:28:50.944Z,99623.62
2023-04-11T20:31:23.896Z,99627.34
2023-04-11T20:33:57.152Z,99621.56
2023-04-11T20:36:33.066Z,99622.06
2023-04-11T20:39:06.500Z,99617.98
2023-04-11T20:41:40.639Z,99613.06
2023-04-11T20:44:13.611Z,99621.23
2023-04-11T20:46:46.208Z,99621.23
2023-04-11T20:49:19.126Z,99620.70
2023-04-11T20:51:53.225Z,99620.54
2023-04-11T20:54:26.526Z,99614.23
2023-04-11T20:56:59.421Z,99614.73
2023-04-11T20:59:34.497Z,99617.78
2023-04-11T21:02:07.498Z,99610.97
2023-04-11T21:04:40.472Z,99614.06
2023-04-11T21:07:13.781Z,99608.08
2023-04-11T21:09:47.065Z,99601.64
2023-04-11T21:12:19.477Z,99598.91
2023-04-11T21:14:52.042Z,99596.69
2023-04-11T21:17:24.693Z,99594.30
2023-04-11T21:19:57.341Z,99598.91
2023-04-11T21:22:30.543Z,99602.13
2023-04-11T21:25:04.909Z,99609.97
2023-04-11T21:27:36.821Z,99611.83
2023-04-11T21:30:10.936Z,99616.42
2023-04-11T21:32:44.294Z,99618.11
2023-04-11T21:35:16.812Z,99611.63
2023-04-11T21:37:49.436Z,99621.53
2023-04-11T21:40:21.949Z,99615.55
2023-04-11T21:42:56.151Z,99618.07
2023-04-11T21:45:29.222Z,99627.27
2023-04-11T21:48:03.438Z,99618.05
2023-04-11T21:50:36.770Z,99609.17
2023-04-11T21:53:09.947Z,99608.47
2023-04-11T21:55:47.349Z,99600.92
2023-04-11T21:58:29.224Z,99589.33
2023-04-11T22:00:54.387Z,99595.46
2023-04-11T22:03:29.078Z,99581.16
2023-04-11T22:06:02.368Z,99591.00
2023-04-11T22:08:36.638Z,99586.25
2023-04-11T22:11:10.467Z,99582.99
2023-04-11T22:13:45.291Z,99575.69
2023-04-11T22:16:17.666Z,99574.48
2023-04-11T22:18:50.297Z,99570.56
2023-04-11T22:21:26.447Z,99560.34
2023-04-11T22:23:58.454Z,99560.00
2023-04-11T22:26:33.225Z,99554.52
2023-04-11T22:29:06.160Z,99549.76
2023-04-11T22:31:39.227Z,99550.73
2023-04-11T22:34:12.393Z,99544.27
2023-04-11T22:36:45.629Z,99544.42
2023-04-11T22:39:18.174Z,99533.70
2023-04-11T22:41:52.668Z,99524.52
2023-04-11T22:44:25.288Z,99520.43
2023-04-11T22:47:06.403Z,99512.97
2023-04-11T22:49:42.772Z,99508.19
2023-04-11T22:52:15.793Z,99509.55
2023-04-11T22:54:48.853Z,99512.95
2023-04-11T22:57:21.511Z,99505.78
2023-04-11T22:59:54.544Z,99500.02
2023-04-11T23:02:28.904Z,99499.67
2023-04-11T23:05:03.024Z,99493.70
2023-04-11T23:07:36.070Z,99494.20
2023-04-11T23:10:11.442Z,99486.03
2023-04-11T23:12:45.320Z,99478.89
2023-04-11T23:15:19.493Z,99470.73
2023-04-11T23:17:52.897Z,99464.73
2023-04-11T23:20:25.524Z,99464.73
2023-04-11T23:22:59.393Z,99458.59
2023-04-11T23:25:32.162Z,99462.84
2023-04-11T23:28:05.529Z,99469.62
2023-04-11T23:30:39.152Z,99462.13
2023-04-11T23:33:13.408Z,99458.37
2023-04-11T23:35:47.502Z,99452.42
2023-04-11T23:38:21.657Z,99444.09
2023-04-11T23:40:54.995Z,99439.31
2023-04-11T23:43:28.327Z,99428.94
2023-04-11T23:46:01.868Z,99422.47
2023-04-11T23:48:35.409Z,99416.86
2023-04-11T23:51:08.364Z,99416.69
2023-04-11T23:53:42.662Z,99418.53
2023-04-11T23:56:15.713Z,99419.56
2023-04-11T23:58:50.538Z,99410.38
